createdAt,value
2023-02-15T00:00:25.904Z,36.09
2023-02-15T00:02:56.294Z,35.85
2023-02-15T00:05:28.203Z,35.85
2023-02-15T00:07:58.204Z,36.09
2023-02-15T00:10:28.733Z,35.72
2023-02-15T00:12:58.529Z,36.03
2023-02-15T00:15:28.999Z,36.22
2023-02-15T00:18:00.286Z,35.64
2023-02-15T00:20:32.278Z,35.93
2023-02-15T00:23:03.177Z,36.23
2023-02-15T00:25:32.773Z,35.84
2023-02-15T00:28:04.432Z,36.43
2023-02-15T00:30:35.300Z,35.98
2023-02-15T00:33:05.677Z,36.54
2023-02-15T00:35:37.713Z,36.59
2023-02-15T00:38:07.872Z,36.56
2023-02-15T00:40:38.874Z,36.31
2023-02-15T00:43:08.884Z,36.59
2023-02-15T00:45:40.981Z,36.41
2023-02-15T00:48:10.784Z,36.19
2023-02-15T00:50:42.730Z,36.20
2023-02-15T00:53:12.597Z,36.38
2023-02-15T00:55:42.509Z,36.62
2023-02-15T00:58:14.290Z,36.26
2023-02-15T01:00:47.515Z,36.13
2023-02-15T01:03:20.003Z,36.04
2023-02-15T01:05:55.542Z,36.52
2023-02-15T01:08:25.880Z,36.34
2023-02-15T01:10:56.146Z,36.74
2023-02-15T01:13:26.554Z,36.93
2023-02-15T01:15:58.528Z,36.80
2023-02-15T01:18:29.060Z,36.56
2023-02-15T01:21:01.363Z,36.44
2023-02-15T01:23:31.720Z,36.94
2023-02-15T01:26:06.340Z,37.03
2023-02-15T01:28:36.799Z,36.63
2023-02-15T01:31:10.574Z,37.10
2023-02-15T01:33:41.986Z,36.53
2023-02-15T01:36:18.731Z,36.59
2023-02-15T01:38:49.464Z,36.55
2023-02-15T01:41:27.568Z,36.82
2023-02-15T01:44:01.109Z,36.76
2023-02-15T01:46:38.680Z,36.68
2023-02-15T01:49:17.603Z,36.57
2023-02-15T01:51:54.176Z,37.00
2023-02-15T01:54:32.944Z,36.71
2023-02-15T01:57:08.583Z,36.54
2023-02-15T01:59:43.041Z,36.56
2023-02-15T02:02:17.174Z,37.10
2023-02-15T02:04:52.705Z,37.10
2023-02-15T02:07:29.278Z,37.03
2023-02-15T02:09:58.969Z,36.67
2023-02-15T02:12:30.226Z,36.59
2023-02-15T02:15:02.443Z,36.95
2023-02-15T02:17:51.321Z,36.72
2023-02-15T02:20:54.936Z,36.71
2023-02-15T02:24:26.550Z,37.22
2023-02-15T02:27:26.889Z,37.20
2023-02-15T02:30:42.695Z,37.08
2023-02-15T02:33:51.485Z,36.69
2023-02-15T02:36:35.085Z,36.94
2023-02-15T02:39:20.854Z,37.13
2023-02-15T02:42:05.021Z,36.90
2023-02-15T02:44:46.252Z,36.65
2023-02-15T02:47:26.222Z,36.69
2023-02-15T02:50:04.811Z,36.85
2023-02-15T02:52:45.275Z,36.68
2023-02-15T02:55:23.900Z,36.77
2023-02-15T02:58:02.543Z,37.27
2023-02-15T03:00:38.227Z,37.39
2023-02-15T03:03:16.552Z,36.77
2023-02-15T03:05:54.476Z,36.81
2023-02-15T03:08:32.539Z,37.08
2023-02-15T03:11:06.807Z,37.25
2023-02-15T03:13:38.093Z,36.78
2023-02-15T03:16:30.652Z,36.93
2023-02-15T03:19:09.778Z,36.89
2023-02-15T03:21:50.719Z,37.12
2023-02-15T03:24:27.418Z,37.02
2023-02-15T03:27:00.252Z,36.92
2023-02-15T03:29:33.801Z,37.21
2023-02-15T03:32:10.615Z,37.38
2023-02-15T03:34:40.649Z,37.37
2023-02-15T03:37:24.193Z,37.27
2023-02-15T03:40:21.684Z,36.86
2023-02-15T03:43:00.077Z,36.92
2023-02-15T03:45:36.701Z,36.89
2023-02-15T03:48:10.200Z,36.98
2023-02-15T03:50:59.606Z,36.98
2023-02-15T03:53:31.894Z,37.55
2023-02-15T03:56:02.174Z,37.50
2023-02-15T03:58:49.040Z,37.37
2023-02-15T04:01:59.192Z,36.91
2023-02-15T04:04:38.282Z,37.57
2023-02-15T04:07:10.659Z,37.43
2023-02-15T04:09:59.710Z,37.26
2023-02-15T04:12:29.992Z,37.25
2023-02-15T04:15:17.014Z,37.56
2023-02-15T04:17:46.970Z,37.47
2023-02-15T04:20:34.141Z,37.50
2023-02-15T04:23:21.291Z,37.51
2023-02-15T04:25:53.651Z,37.23
2023-02-15T04:28:24.133Z,37.66
2023-02-15T04:30:54.380Z,37.67
2023-02-15T04:33:24.858Z,37.64
2023-02-15T04:35:55.081Z,37.56
2023-02-15T04:38:25.670Z,37.60
2023-02-15T04:41:01.500Z,37.40
2023-02-15T04:43:31.176Z,37.70
2023-02-15T04:46:02.013Z,37.18
2023-02-15T04:48:32.327Z,37.69
2023-02-15T04:51:01.913Z,37.83
2023-02-15T04:53:31.787Z,37.80
2023-02-15T04:56:04.466Z,37.67
2023-02-15T04:58:34.875Z,37.69
2023-02-15T05:01:04.639Z,37.54
2023-02-15T05:03:34.950Z,37.75
2023-02-15T05:06:05.563Z,37.50
2023-02-15T05:08:35.948Z,37.67
2023-02-15T05:11:07.942Z,37.47
2023-02-15T05:13:37.883Z,37.25
2023-02-15T05:16:08.556Z,37.82
2023-02-15T05:18:38.500Z,37.87
2023-02-15T05:21:08.951Z,37.39
2023-02-15T05:23:39.303Z,37.77
2023-02-15T05:26:31.385Z,37.47
2023-02-15T05:29:01.140Z,37.74
2023-02-15T05:31:31.300Z,37.90
2023-02-15T05:34:01.889Z,38.54
2023-02-15T05:36:32.230Z,38.23
2023-02-15T05:39:02.619Z,38.92
2023-02-15T05:41:34.989Z,38.87
2023-02-15T05:44:05.337Z,38.50
2023-02-15T05:46:35.772Z,39.35
2023-02-15T05:49:06.321Z,38.71
2023-02-15T05:51:36.357Z,38.79
2023-02-15T05:54:06.845Z,39.18
2023-02-15T05:56:38.431Z,38.50
2023-02-15T05:59:08.877Z,38.33
2023-02-15T06:01:39.745Z,38.55
2023-02-15T06:04:09.953Z,38.15
2023-02-15T06:06:40.077Z,37.89
2023-02-15T06:09:10.583Z,38.29
2023-02-15T06:11:42.826Z,38.12
2023-02-15T06:14:13.154Z,37.82
2023-02-15T06:16:43.547Z,37.92
2023-02-15T06:19:13.508Z,38.30
2023-02-15T06:21:43.493Z,37.78
2023-02-15T06:24:14.170Z,37.92
2023-02-15T06:26:46.697Z,38.42
2023-02-15T06:29:17.254Z,37.97
2023-02-15T06:31:47.695Z,38.20
2023-02-15T06:34:18.380Z,38.48
2023-02-15T06:36:48.655Z,38.17
2023-02-15T06:39:18.638Z,38.15
2023-02-15T06:41:51.020Z,38.05
2023-02-15T06:44:21.462Z,38.57
2023-02-15T06:46:51.797Z,38.40
2023-02-15T06:49:22.001Z,38.58
2023-02-15T06:51:51.650Z,37.96
2023-02-15T06:54:22.191Z,38.51
2023-02-15T06:56:54.536Z,38.14
2023-02-15T06:59:24.411Z,38.51
2023-02-15T07:01:54.757Z,38.53
2023-02-15T07:04:24.767Z,39.09
2023-02-15T07:06:54.496Z,39.45
2023-02-15T07:09:25.253Z,39.62
2023-02-15T07:12:13.925Z,39.17
2023-02-15T07:14:44.067Z,39.46
2023-02-15T07:17:32.971Z,39.57
2023-02-15T07:20:04.453Z,39.13
2023-02-15T07:22:37.448Z,39.64
2023-02-15T07:25:07.756Z,39.48
2023-02-15T07:27:39.387Z,39.53
2023-02-15T07:30:14.003Z,39.59
2023-02-15T07:32:57.338Z,39.35
2023-02-15T07:35:27.890Z,39.76
2023-02-15T07:37:58.695Z,39.59
2023-02-15T07:40:29.331Z,39.55
2023-02-15T07:43:02.546Z,39.23
2023-02-15T07:45:32.613Z,39.25
2023-02-15T07:48:05.585Z,39.36
2023-02-15T07:50:36.227Z,38.96
2023-02-15T07:53:07.870Z,38.82
2023-02-15T07:55:37.574Z,38.58
2023-02-15T07:58:09.333Z,38.85
2023-02-15T08:00:57.655Z,38.71
2023-02-15T08:03:28.552Z,38.86
2023-02-15T08:06:01.609Z,38.67
2023-02-15T08:08:34.779Z,38.66
2023-02-15T08:11:25.898Z,38.21
2023-02-15T08:14:00.769Z,37.97
2023-02-15T08:16:35.233Z,37.67
2023-02-15T08:19:08.175Z,37.68
2023-02-15T08:21:40.551Z,37.57
2023-02-15T08:24:13.087Z,37.52
2023-02-15T08:26:46.350Z,37.33
2023-02-15T08:29:20.176Z,36.78
2023-02-15T08:31:51.928Z,37.05
2023-02-15T08:34:23.491Z,37.11
2023-02-15T08:36:54.157Z,36.53
2023-02-15T08:39:24.727Z,36.79
2023-02-15T08:41:55.049Z,36.49
2023-02-15T08:44:27.194Z,36.91
2023-02-15T08:47:00.043Z,36.54
2023-02-15T08:49:30.045Z,36.26
2023-02-15T08:52:00.005Z,36.54
2023-02-15T08:54:29.967Z,36.40
2023-02-15T08:57:00.362Z,36.58
2023-02-15T08:59:32.737Z,35.96
2023-02-15T09:02:04.408Z,36.41
2023-02-15T09:04:35.043Z,36.29
2023-02-15T09:07:05.831Z,36.60
2023-02-15T09:09:36.345Z,36.49
2023-02-15T09:12:06.997Z,36.49
2023-02-15T09:14:39.189Z,36.20
2023-02-15T09:17:09.566Z,36.42
2023-02-15T09:19:39.908Z,36.36
2023-02-15T09:22:10.253Z,36.58
2023-02-15T09:24:40.660Z,36.37
2023-02-15T09:27:11.120Z,36.24
2023-02-15T09:29:43.607Z,36.41
2023-02-15T09:32:18.984Z,35.80
2023-02-15T09:34:49.507Z,36.35
2023-02-15T09:37:19.506Z,36.08
2023-02-15T09:39:50.424Z,36.17
2023-02-15T09:42:57.771Z,36.31
2023-02-15T09:45:48.050Z,35.96
2023-02-15T09:48:42.817Z,36.32
2023-02-15T09:51:53.656Z,35.77
2023-02-15T09:54:49.202Z,35.92
2023-02-15T09:57:34.098Z,36.11
2023-02-15T10:00:23.642Z,35.62
2023-02-15T10:03:19.002Z,35.72
2023-02-15T10:06:17.223Z,35.60
2023-02-15T10:09:30.560Z,35.58
2023-02-15T10:12:25.778Z,35.66
2023-02-15T10:15:41.459Z,35.99
2023-02-15T10:18:58.410Z,35.97
2023-02-15T10:21:47.372Z,35.63
2023-02-15T10:24:47.204Z,35.59
2023-02-15T10:27:24.633Z,35.49
2023-02-15T10:30:11.516Z,35.37
2023-02-15T10:32:59.342Z,35.71
2023-02-15T10:35:47.877Z,35.48
2023-02-15T10:38:34.859Z,35.39
2023-02-15T10:41:25.818Z,35.07
2023-02-15T10:44:27.649Z,35.27
2023-02-15T10:47:25.727Z,35.56
2023-02-15T10:50:28.285Z,35.25
2023-02-15T10:53:17.613Z,35.55
2023-02-15T10:56:01.339Z,34.99
2023-02-15T10:58:55.690Z,35.19
2023-02-15T11:01:36.410Z,35.59
2023-02-15T11:04:43.075Z,35.36
2023-02-15T11:07:23.686Z,35.28
2023-02-15T11:10:09.449Z,35.35
2023-02-15T11:12:40.113Z,35.38
2023-02-15T11:15:23.388Z,35.39
2023-02-15T11:18:02.668Z,35.53
2023-02-15T11:20:39.427Z,35.23
2023-02-15T11:23:19.865Z,35.42
2023-02-15T11:26:02.687Z,35.52
2023-02-15T11:28:41.897Z,35.41
2023-02-15T11:31:22.606Z,35.54
2023-02-15T11:34:02.487Z,35.36
2023-02-15T11:36:38.649Z,35.37
2023-02-15T11:39:17.810Z,35.72
2023-02-15T11:41:57.131Z,35.20
2023-02-15T11:44:35.365Z,35.75
2023-02-15T11:47:06.002Z,35.27
2023-02-15T11:49:38.984Z,35.43
2023-02-15T11:52:15.141Z,35.90
2023-02-15T11:54:48.963Z,35.51
2023-02-15T11:57:28.873Z,35.96
2023-02-15T12:00:10.137Z,35.80
2023-02-15T12:02:45.713Z,36.30
2023-02-15T12:05:23.524Z,36.24
2023-02-15T12:08:00.573Z,36.35
2023-02-15T12:10:38.378Z,36.28
2023-02-15T12:13:19.253Z,36.04
2023-02-15T12:15:52.500Z,36.34
2023-02-15T12:18:41.836Z,36.28
2023-02-15T12:21:15.262Z,36.44
2023-02-15T12:23:53.930Z,36.26
2023-02-15T12:26:30.808Z,36.46
2023-02-15T12:29:10.154Z,36.07
2023-02-15T12:31:47.383Z,36.26
2023-02-15T12:34:25.945Z,36.33
2023-02-15T12:37:01.648Z,36.32
2023-02-15T12:39:33.578Z,36.21
2023-02-15T12:42:08.944Z,35.93
2023-02-15T12:44:41.092Z,35.90
2023-02-15T12:47:28.860Z,36.46
2023-02-15T12:50:18.244Z,36.42
2023-02-15T12:52:50.401Z,36.29
2023-02-15T12:55:31.339Z,36.37
2023-02-15T12:58:22.955Z,36.48
2023-02-15T13:01:14.272Z,36.11
2023-02-15T13:04:02.193Z,36.12
2023-02-15T13:06:36.200Z,35.97
2023-02-15T13:09:19.240Z,36.14
2023-02-15T13:11:51.178Z,36.21
2023-02-15T13:14:24.432Z,36.30
2023-02-15T13:17:01.753Z,36.14
2023-02-15T13:19:38.979Z,36.51
2023-02-15T13:22:16.978Z,36.32
2023-02-15T13:24:51.431Z,36.42
2023-02-15T13:27:26.325Z,35.99
2023-02-15T13:30:02.289Z,36.45
2023-02-15T13:32:39.358Z,36.42
2023-02-15T13:35:19.287Z,36.25
2023-02-15T13:38:18.532Z,36.03
2023-02-15T13:40:57.371Z,36.45
2023-02-15T13:43:49.383Z,36.41
2023-02-15T13:46:42.635Z,36.32
2023-02-15T13:49:40.621Z,36.11
2023-02-15T13:52:23.600Z,36.67
2023-02-15T13:55:24.444Z,36.20
2023-02-15T13:58:38.489Z,36.18
2023-02-15T14:01:22.009Z,36.27
2023-02-15T14:04:24.125Z,36.34
2023-02-15T14:07:27.468Z,36.58
2023-02-15T14:10:22.130Z,36.08
2023-02-15T14:13:14.517Z,36.30
2023-02-15T14:15:54.090Z,36.30
2023-02-15T14:18:39.310Z,35.88
2023-02-15T14:21:22.975Z,36.10
2023-02-15T14:24:16.411Z,35.75
2023-02-15T14:26:58.349Z,36.03
2023-02-15T14:29:47.361Z,35.86
2023-02-15T14:32:27.623Z,35.86
2023-02-15T14:35:02.169Z,35.78
2023-02-15T14:37:46.356Z,35.59
2023-02-15T14:40:49.308Z,35.84
2023-02-15T14:43:34.024Z,35.61
2023-02-15T14:46:15.368Z,35.98
2023-02-15T14:48:53.044Z,35.81
2023-02-15T14:52:09.892Z,35.44
2023-02-15T14:55:03.964Z,35.61
2023-02-15T14:57:37.469Z,36.07
2023-02-15T15:00:41.813Z,36.18
2023-02-15T15:03:25.912Z,36.00
2023-02-15T15:06:02.255Z,36.01
2023-02-15T15:08:41.629Z,35.73
2023-02-15T15:11:48.333Z,35.76
2023-02-15T15:14:45.652Z,35.44
2023-02-15T15:18:04.034Z,35.95
2023-02-15T15:20:51.187Z,36.00
2023-02-15T15:23:49.654Z,36.10
2023-02-15T15:26:50.529Z,36.01
2023-02-15T15:29:44.051Z,36.05
2023-02-15T15:32:31.252Z,35.95
2023-02-15T15:35:27.358Z,35.92
2023-02-15T15:38:34.919Z,35.60
2023-02-15T15:41:21.447Z,36.10
2023-02-15T15:44:58.672Z,36.10
2023-02-15T15:48:07.029Z,35.63
2023-02-15T15:50:38.090Z,35.83
2023-02-15T15:53:23.405Z,35.78
2023-02-15T15:55:58.814Z,35.74
2023-02-15T15:58:29.154Z,35.93
2023-02-15T16:01:11.304Z,35.88
2023-02-15T16:03:41.864Z,36.02
2023-02-15T16:06:18.205Z,36.08
2023-02-15T16:08:48.302Z,35.66
2023-02-15T16:11:24.317Z,36.26
2023-02-15T16:13:56.274Z,36.10
2023-02-15T16:16:32.772Z,36.10
2023-02-15T16:19:03.873Z,36.12
2023-02-15T16:21:39.932Z,35.89
2023-02-15T16:25:28.849Z,36.23
2023-02-15T16:27:59.652Z,36.34
2023-02-15T16:30:33.258Z,36.32
2023-02-15T16:33:15.272Z,35.76
2023-02-15T16:35:59.864Z,35.98
2023-02-15T16:39:10.772Z,36.05
2023-02-15T16:41:43.338Z,35.94
2023-02-15T16:44:21.865Z,36.02
2023-02-15T16:46:56.919Z,35.77
2023-02-15T16:49:32.957Z,35.76
2023-02-15T16:52:06.963Z,36.32
2023-02-15T16:54:38.653Z,35.97
2023-02-15T16:57:16.587Z,36.35
2023-02-15T16:59:52.385Z,35.94
2023-02-15T17:02:49.738Z,35.99
2023-02-15T17:05:24.913Z,35.96
2023-02-15T17:08:16.574Z,36.42
2023-02-15T17:11:07.792Z,36.80
2023-02-15T17:13:38.234Z,36.80
2023-02-15T17:16:33.221Z,36.54
2023-02-15T17:19:05.318Z,36.28
2023-02-15T17:21:44.998Z,36.14
2023-02-15T17:24:25.010Z,36.71
2023-02-15T17:27:03.143Z,36.79
2023-02-15T17:29:40.246Z,36.41
2023-02-15T17:32:22.118Z,36.41
2023-02-15T17:35:12.894Z,36.26
2023-02-15T17:37:51.823Z,36.71
2023-02-15T17:40:28.326Z,36.37
2023-02-15T17:42:59.159Z,36.73
2023-02-15T17:45:39.074Z,36.26
2023-02-15T17:48:17.081Z,36.84
2023-02-15T17:50:47.577Z,36.98
2023-02-15T17:53:22.392Z,36.36
2023-02-15T17:55:51.002Z,36.90
2023-02-15T17:58:22.996Z,36.91
2023-02-15T18:01:14.393Z,36.59
2023-02-15T18:04:04.325Z,37.18
2023-02-15T18:06:52.079Z,36.93
2023-02-15T18:09:43.346Z,37.19
2023-02-15T18:12:24.345Z,36.93
2023-02-15T18:14:56.878Z,36.74
2023-02-15T18:17:35.379Z,36.71
2023-02-15T18:20:09.846Z,37.36
2023-02-15T18:22:40.910Z,37.04
2023-02-15T18:25:17.600Z,37.35
2023-02-15T18:27:49.057Z,37.16
2023-02-15T18:30:22.588Z,37.33
2023-02-15T18:32:57.042Z,36.88
2023-02-15T18:35:32.887Z,37.05
2023-02-15T18:38:04.738Z,37.05
2023-02-15T18:40:37.714Z,37.29
2023-02-15T18:43:08.134Z,37.17
2023-02-15T18:45:39.513Z,37.02
2023-02-15T18:48:10.638Z,37.64
2023-02-15T18:50:41.775Z,36.98
2023-02-15T18:53:22.113Z,37.54
2023-02-15T18:55:55.341Z,37.09
2023-02-15T18:58:29.482Z,37.33
2023-02-15T19:01:01.606Z,37.58
2023-02-15T19:03:32.844Z,37.20
2023-02-15T19:06:05.855Z,37.77
2023-02-15T19:08:37.372Z,37.23
2023-02-15T19:11:20.254Z,37.32
2023-02-15T19:13:51.348Z,37.92
2023-02-15T19:16:36.020Z,37.53
2023-02-15T19:19:07.495Z,37.74
2023-02-15T19:21:38.004Z,37.54
2023-02-15T19:24:18.289Z,37.61
2023-02-15T19:26:52.393Z,37.33
2023-02-15T19:29:30.127Z,37.89
2023-02-15T19:32:00.354Z,37.47
2023-02-15T19:34:31.398Z,37.33
2023-02-15T19:37:02.596Z,37.95
2023-02-15T19:39:41.089Z,37.84
2023-02-15T19:42:19.145Z,37.92
2023-02-15T19:44:49.749Z,37.74
2023-02-15T19:47:19.999Z,37.78
2023-02-15T19:49:50.505Z,37.97
2023-02-15T19:52:26.193Z,37.51
2023-02-15T19:54:58.382Z,37.85
2023-02-15T19:57:32.116Z,37.45
2023-02-15T20:00:15.912Z,37.34
2023-02-15T20:02:51.426Z,37.84
2023-02-15T20:05:23.424Z,37.91
2023-02-15T20:07:55.938Z,37.78
2023-02-15T20:10:30.814Z,37.47
2023-02-15T20:13:04.872Z,37.29
2023-02-15T20:15:38.106Z,37.38
2023-02-15T20:18:08.174Z,37.44
2023-02-15T20:20:49.751Z,37.60
2023-02-15T20:23:25.154Z,37.96
2023-02-15T20:25:57.113Z,37.76
2023-02-15T20:28:31.944Z,37.44
2023-02-15T20:31:02.580Z,37.51
2023-02-15T20:33:33.482Z,38.03
2023-02-15T20:36:03.881Z,37.63
2023-02-15T20:38:35.863Z,37.79
2023-02-15T20:41:22.870Z,37.98
2023-02-15T20:43:55.336Z,37.56
2023-02-15T20:46:25.931Z,38.16
2023-02-15T20:48:56.744Z,37.96
2023-02-15T20:51:27.393Z,37.59
2023-02-15T20:53:57.735Z,37.61
2023-02-15T20:56:28.663Z,37.59
2023-02-15T20:59:00.974Z,38.00
2023-02-15T21:01:32.837Z,37.75
2023-02-15T21:04:03.978Z,38.21
2023-02-15T21:06:34.433Z,37.51
2023-02-15T21:09:05.196Z,37.77
2023-02-15T21:11:34.947Z,37.96
2023-02-15T21:14:06.672Z,37.54
2023-02-15T21:16:36.960Z,37.52
2023-02-15T21:19:16.903Z,38.08
2023-02-15T21:21:48.659Z,38.08
2023-02-15T21:24:23.799Z,38.12
2023-02-15T21:26:55.913Z,37.53
2023-02-15T21:29:31.245Z,37.88
2023-02-15T21:32:03.199Z,38.09
2023-02-15T21:34:33.692Z,37.76
2023-02-15T21:37:05.435Z,37.72
2023-02-15T21:39:39.735Z,37.62
2023-02-15T21:42:30.310Z,37.68
2023-02-15T21:45:18.668Z,37.48
2023-02-15T21:47:55.475Z,37.48
2023-02-15T21:50:44.686Z,37.93
2023-02-15T21:53:25.418Z,37.68
2023-02-15T21:56:00.309Z,38.03
2023-02-15T21:58:33.608Z,38.02
2023-02-15T22:01:06.070Z,38.00
2023-02-15T22:03:40.119Z,37.66
2023-02-15T22:06:15.722Z,37.69
2023-02-15T22:08:46.349Z,38.19
2023-02-15T22:11:19.152Z,38.12
2023-02-15T22:13:51.434Z,37.84
2023-02-15T22:16:26.089Z,37.62
2023-02-15T22:18:56.633Z,37.67
2023-02-15T22:21:27.608Z,38.13
2023-02-15T22:23:57.862Z,37.91
2023-02-15T22:26:29.113Z,37.76
2023-02-15T22:29:00.687Z,37.46
2023-02-15T22:31:33.123Z,37.79
2023-02-15T22:34:03.547Z,38.03
2023-02-15T22:36:34.454Z,38.10
2023-02-15T22:39:04.666Z,37.47
2023-02-15T22:41:44.339Z,38.06
2023-02-15T22:44:18.639Z,37.59
2023-02-15T22:46:55.220Z,37.60
2023-02-15T22:49:25.747Z,37.81
2023-02-15T22:51:56.426Z,38.04
2023-02-15T22:54:27.738Z,38.01
2023-02-15T22:56:58.173Z,38.10
2023-02-15T22:59:34.655Z,37.83
2023-02-15T23:02:08.263Z,37.90
2023-02-15T23:04:38.040Z,38.05
2023-02-15T23:07:15.507Z,38.16
2023-02-15T23:09:46.651Z,37.84
2023-02-15T23:12:28.514Z,38.36
2023-02-15T23:15:00.780Z,38.48
2023-02-15T23:17:32.178Z,38.39
2023-02-15T23:20:03.268Z,38.19
2023-02-15T23:22:33.739Z,38.57
2023-02-15T23:25:04.248Z,38.52
2023-02-15T23:27:50.443Z,38.35
2023-02-15T23:30:21.583Z,38.23
2023-02-15T23:32:55.691Z,38.34
2023-02-15T23:35:26.456Z,38.33
2023-02-15T23:37:56.418Z,38.57
2023-02-15T23:40:51.649Z,38.64
2023-02-15T23:43:25.497Z,38.63
2023-02-15T23:45:55.340Z,38.56
2023-02-15T23:48:40.456Z,38.34
2023-02-15T23:51:14.053Z,38.29
2023-02-15T23:53:44.112Z,38.73
2023-02-15T23:56:16.160Z,38.55
2023-02-15T23:58:48.987Z,38.27
